createdAt,value
2023-12-10T00:01:05.494Z,86.50
2023-12-10T00:04:29.713Z,86.66
2023-12-10T00:07:54.060Z,86.56
2023-12-10T00:11:18.039Z,86.80
2023-12-10T00:14:39.721Z,86.98
2023-12-10T00:18:03.671Z,86.29
2023-12-10T00:21:25.525Z,86.83
2023-12-10T00:24:49.506Z,86.39
2023-12-10T00:28:11.321Z,85.92
2023-12-10T00:31:32.986Z,86.45
2023-12-10T00:34:54.764Z,86.61
2023-12-10T00:38:21.767Z,86.21
2023-12-10T00:41:43.639Z,86.74
2023-12-10T00:45:10.831Z,86.67
2023-12-10T00:48:32.804Z,86.40
2023-12-10T00:51:57.136Z,87.26
2023-12-10T00:55:21.067Z,87.11
2023-12-10T00:58:42.986Z,87.26
2023-12-10T01:02:04.790Z,87.40
2023-12-10T01:05:27.069Z,87.29
2023-12-10T01:08:48.885Z,86.98
2023-12-10T01:12:10.524Z,86.88
2023-12-10T01:15:32.964Z,86.13
2023-12-10T01:18:55.121Z,85.83
2023-12-10T01:22:17.127Z,86.38
2023-12-10T01:25:38.897Z,86.51
2023-12-10T01:29:00.543Z,86.06
2023-12-10T01:32:22.522Z,86.43
2023-12-10T01:35:46.673Z,87.22
2023-12-10T01:39:08.422Z,87.11
2023-12-10T01:42:30.261Z,87.10
2023-12-10T01:45:54.721Z,87.02
2023-12-10T01:49:18.277Z,87.33
2023-12-10T01:52:41.627Z,86.92
2023-12-10T01:56:10.535Z,87.19
2023-12-10T01:59:37.666Z,86.46
2023-12-10T02:03:04.212Z,86.25
2023-12-10T02:06:26.627Z,85.51
2023-12-10T02:09:51.825Z,84.98
2023-12-10T02:13:16.077Z,85.67
2023-12-10T02:16:37.770Z,85.32
2023-12-10T02:19:59.552Z,85.56
2023-12-10T02:23:36.647Z,85.54
2023-12-10T02:27:03.607Z,85.66
2023-12-10T02:30:27.890Z,85.18
2023-12-10T02:33:49.592Z,85.82
2023-12-10T02:37:11.586Z,85.56
2023-12-10T02:40:33.233Z,85.20
2023-12-10T02:43:54.926Z,85.87
2023-12-10T02:47:16.613Z,86.30
2023-12-10T02:50:38.312Z,86.61
2023-12-10T02:54:02.133Z,87.02
2023-12-10T02:57:23.908Z,86.93
2023-12-10T03:00:45.691Z,87.02
2023-12-10T03:04:09.753Z,86.97
2023-12-10T03:07:36.185Z,87.21
2023-12-10T03:10:57.868Z,87.44
2023-12-10T03:14:22.278Z,87.35
2023-12-10T03:17:46.464Z,87.39
2023-12-10T03:21:08.204Z,87.12
2023-12-10T03:24:32.606Z,87.34
2023-12-10T03:27:54.466Z,87.28
2023-12-10T03:31:20.714Z,86.67
2023-12-10T03:34:42.575Z,85.76
2023-12-10T03:38:06.536Z,85.91
2023-12-10T03:41:28.151Z,86.62
2023-12-10T03:44:49.885Z,87.04
2023-12-10T03:48:11.635Z,86.41
2023-12-10T03:51:33.538Z,86.15
2023-12-10T03:54:55.191Z,85.20
2023-12-10T03:58:17.725Z,85.32
2023-12-10T04:01:46.252Z,85.05
2023-12-10T04:05:13.084Z,85.24
2023-12-10T04:08:37.237Z,85.79
2023-12-10T04:12:02.694Z,85.95
2023-12-10T04:15:25.019Z,85.79
2023-12-10T04:18:52.060Z,86.59
2023-12-10T04:22:13.781Z,86.18
2023-12-10T04:25:40.201Z,85.70
2023-12-10T04:29:01.942Z,85.42
2023-12-10T04:32:26.520Z,85.11
2023-12-10T04:35:48.240Z,85.46
2023-12-10T04:39:12.818Z,86.08
2023-12-10T04:42:34.539Z,86.47
2023-12-10T04:45:57.144Z,86.14
2023-12-10T04:49:19.055Z,86.65
2023-12-10T04:52:40.879Z,86.66
2023-12-10T04:56:02.854Z,86.53
2023-12-10T04:59:24.596Z,86.68
2023-12-10T05:02:46.220Z,86.41
2023-12-10T05:06:08.584Z,86.29
2023-12-10T05:09:30.282Z,86.37
2023-12-10T05:12:59.052Z,86.54
2023-12-10T05:16:20.720Z,86.43
2023-12-10T05:19:44.888Z,86.46
2023-12-10T05:23:09.222Z,86.33
2023-12-10T05:26:35.716Z,86.28
2023-12-10T05:29:59.810Z,86.49
2023-12-10T05:33:23.986Z,86.38
2023-12-10T05:36:48.941Z,86.08
2023-12-10T05:40:16.131Z,86.24
2023-12-10T05:43:37.810Z,86.73
2023-12-10T05:46:59.543Z,86.74
2023-12-10T05:50:23.504Z,86.90
2023-12-10T05:53:47.406Z,86.95
2023-12-10T05:57:09.104Z,86.75
2023-12-10T06:00:33.030Z,86.85
2023-12-10T06:03:56.977Z,86.96
2023-12-10T06:07:24.289Z,86.96
2023-12-10T06:10:46.272Z,87.19
2023-12-10T06:14:08.111Z,86.64
2023-12-10T06:17:34.537Z,86.67
2023-12-10T06:20:56.361Z,86.17
2023-12-10T06:24:18.088Z,86.21
2023-12-10T06:27:42.066Z,86.50
2023-12-10T06:31:06.032Z,86.50
2023-12-10T06:34:27.784Z,86.24
2023-12-10T06:37:51.927Z,86.23
2023-12-10T06:41:13.828Z,86.06
2023-12-10T06:44:37.152Z,86.41
2023-12-10T06:47:58.946Z,86.27
2023-12-10T06:51:23.253Z,85.50
2023-12-10T06:54:47.671Z,85.75
2023-12-10T06:58:09.465Z,86.40
2023-12-10T07:01:32.324Z,86.79
2023-12-10T07:04:54.310Z,86.59
2023-12-10T07:08:16.141Z,86.42
2023-12-10T07:11:40.183Z,87.14
2023-12-10T07:15:04.140Z,86.97
2023-12-10T07:18:26.060Z,86.20
2023-12-10T07:21:53.838Z,86.16
2023-12-10T07:25:15.648Z,86.74
2023-12-10T07:28:39.970Z,86.40
2023-12-10T07:32:01.682Z,86.49
2023-12-10T07:35:25.580Z,86.51
2023-12-10T07:38:47.441Z,86.77
2023-12-10T07:42:09.473Z,86.18
2023-12-10T07:45:31.198Z,86.51
2023-12-10T07:48:53.355Z,86.95
2023-12-10T07:52:19.744Z,87.01
2023-12-10T07:55:43.765Z,86.43
2023-12-10T07:59:05.416Z,86.43
2023-12-10T08:02:27.315Z,86.74
2023-12-10T08:05:51.649Z,86.48
2023-12-10T08:09:13.560Z,86.85
2023-12-10T08:12:35.876Z,86.74
2023-12-10T08:16:00.480Z,86.60
2023-12-10T08:19:25.186Z,86.14
2023-12-10T08:22:49.272Z,86.02
2023-12-10T08:26:11.009Z,86.02
2023-12-10T08:29:32.776Z,86.43
2023-12-10T08:32:56.724Z,86.89
2023-12-10T08:36:18.414Z,86.41
2023-12-10T08:39:42.643Z,86.72
2023-12-10T08:43:06.654Z,86.09
2023-12-10T08:46:28.363Z,85.16
2023-12-10T08:49:50.125Z,85.40
2023-12-10T08:53:11.838Z,85.46
2023-12-10T08:56:33.633Z,85.75
2023-12-10T09:00:01.377Z,85.75
2023-12-10T09:03:25.453Z,86.13
2023-12-10T09:06:47.157Z,85.80
2023-12-10T09:10:13.060Z,85.65
2023-12-10T09:13:36.563Z,85.31
2023-12-10T09:17:00.609Z,91.29
2023-12-10T09:20:22.258Z,96.12
2023-12-10T09:23:45.005Z,94.66
2023-12-10T09:27:09.246Z,91.16
2023-12-10T09:30:33.141Z,88.15
2023-12-10T09:33:54.798Z,85.98
2023-12-10T09:37:17.290Z,80.10
2023-12-10T09:40:39.253Z,79.57
2023-12-10T09:44:03.379Z,79.36
2023-12-10T09:47:30.232Z,80.00
2023-12-10T09:50:51.942Z,81.33
2023-12-10T09:54:13.948Z,81.56
2023-12-10T09:57:37.880Z,81.19
2023-12-10T10:01:04.299Z,81.57
2023-12-10T10:04:28.519Z,82.15
2023-12-10T10:07:53.766Z,81.96
2023-12-10T10:11:18.708Z,82.14
2023-12-10T10:14:56.925Z,81.62
2023-12-10T10:18:21.700Z,88.42
2023-12-10T10:21:44.094Z,88.47
2023-12-10T10:25:07.419Z,86.51
2023-12-10T10:28:30.641Z,85.55
2023-12-10T10:31:57.115Z,84.24
2023-12-10T10:35:19.058Z,78.95
2023-12-10T10:38:43.138Z,76.72
2023-12-10T10:42:06.121Z,76.82
2023-12-10T10:45:27.954Z,80.07
2023-12-10T10:48:54.216Z,78.82
2023-12-10T10:52:22.616Z,78.09
2023-12-10T10:55:47.943Z,78.69
2023-12-10T10:59:29.798Z,80.18
2023-12-10T11:02:55.841Z,80.69
2023-12-10T11:06:17.703Z,81.21
2023-12-10T11:09:59.090Z,82.57
2023-12-10T11:13:46.792Z,83.47
2023-12-10T11:17:10.959Z,83.45
2023-12-10T11:20:35.787Z,83.97
2023-12-10T11:23:59.771Z,83.97
2023-12-10T11:27:26.486Z,91.17
2023-12-10T11:30:48.652Z,86.17
2023-12-10T11:34:15.242Z,83.28
2023-12-10T11:37:39.190Z,79.06
2023-12-10T11:41:01.433Z,79.23
2023-12-10T11:44:23.153Z,76.83
2023-12-10T11:47:46.619Z,76.28
2023-12-10T11:51:08.387Z,77.32
2023-12-10T11:54:30.732Z,78.68
2023-12-10T11:57:52.640Z,78.87
2023-12-10T12:01:14.458Z,80.78
2023-12-10T12:04:39.593Z,82.08
2023-12-10T12:08:02.188Z,82.50
2023-12-10T12:11:29.094Z,82.07
2023-12-10T12:14:52.984Z,82.60
2023-12-10T12:18:17.893Z,82.45
2023-12-10T12:21:44.902Z,82.72
2023-12-10T12:25:07.320Z,83.50
2023-12-10T12:28:31.460Z,83.19
2023-12-10T12:32:12.924Z,83.02
2023-12-10T12:35:42.040Z,82.35
2023-12-10T12:39:04.466Z,82.46
2023-12-10T12:42:26.217Z,88.25
2023-12-10T12:45:47.923Z,88.55
2023-12-10T12:49:11.397Z,87.61
2023-12-10T12:52:33.275Z,86.85
2023-12-10T12:55:54.996Z,85.62
2023-12-10T12:59:19.322Z,83.41
2023-12-10T13:02:40.998Z,78.65
2023-12-10T13:06:02.932Z,80.29
2023-12-10T13:09:24.762Z,80.36
2023-12-10T13:12:48.894Z,80.11
2023-12-10T13:16:12.895Z,80.99
2023-12-10T13:19:34.793Z,82.41
2023-12-10T13:22:56.622Z,83.27
2023-12-10T13:26:18.514Z,83.46
2023-12-10T13:29:42.700Z,83.14
2023-12-10T13:33:06.653Z,83.77
2023-12-10T13:36:28.337Z,83.86
2023-12-10T13:39:50.121Z,84.00
2023-12-10T13:43:14.600Z,83.72
2023-12-10T13:46:36.269Z,83.89
2023-12-10T13:49:58.363Z,89.24
2023-12-10T13:53:22.185Z,88.93
2023-12-10T13:56:43.954Z,86.73
2023-12-10T14:00:12.771Z,86.80
2023-12-10T14:03:37.190Z,85.09
2023-12-10T14:06:59.202Z,84.40
2023-12-10T14:10:23.265Z,78.18
2023-12-10T14:13:45.054Z,78.84
2023-12-10T14:17:09.242Z,79.00
2023-12-10T14:20:33.153Z,79.67
2023-12-10T14:23:57.165Z,81.45
2023-12-10T14:27:21.447Z,82.38
2023-12-10T14:30:43.298Z,82.62
2023-12-10T14:34:12.387Z,82.81
2023-12-10T14:37:36.620Z,83.02
2023-12-10T14:40:58.635Z,83.08
2023-12-10T14:44:20.319Z,83.05
2023-12-10T14:47:44.287Z,83.26
2023-12-10T14:51:06.245Z,82.57
2023-12-10T14:54:30.461Z,81.85
2023-12-10T14:57:52.187Z,82.40
2023-12-10T15:01:14.011Z,83.36
2023-12-10T15:04:38.519Z,82.64
2023-12-10T15:08:02.501Z,82.20
2023-12-10T15:11:24.214Z,82.00
2023-12-10T15:14:45.826Z,82.05
2023-12-10T15:18:07.639Z,83.19
2023-12-10T15:21:31.805Z,90.64
2023-12-10T15:24:58.268Z,87.93
2023-12-10T15:28:22.229Z,85.11
2023-12-10T15:31:46.955Z,82.35
2023-12-10T15:35:13.197Z,78.37
2023-12-10T15:38:35.089Z,78.36
2023-12-10T15:41:59.436Z,79.78
2023-12-10T15:45:21.725Z,80.74
2023-12-10T15:48:46.749Z,81.46
2023-12-10T15:52:09.077Z,82.51
2023-12-10T15:55:30.708Z,83.49
2023-12-10T15:58:52.421Z,83.55
2023-12-10T16:02:16.764Z,83.34
2023-12-10T16:05:38.581Z,83.43
2023-12-10T16:09:01.273Z,85.22
2023-12-10T16:12:25.813Z,90.83
2023-12-10T16:15:52.803Z,88.98
2023-12-10T16:19:17.229Z,87.85
2023-12-10T16:22:38.868Z,86.82
2023-12-10T16:26:03.805Z,86.20
2023-12-10T16:29:28.106Z,80.95
2023-12-10T16:32:52.211Z,79.96
2023-12-10T16:36:14.665Z,80.12
2023-12-10T16:39:38.820Z,80.70
2023-12-10T16:43:03.738Z,80.86
2023-12-10T16:46:28.220Z,86.03
2023-12-10T16:49:50.410Z,90.04
2023-12-10T16:53:12.580Z,87.55
2023-12-10T16:56:34.246Z,87.62
2023-12-10T16:59:56.712Z,81.12
2023-12-10T17:03:18.424Z,80.19
2023-12-10T17:06:40.388Z,79.83
2023-12-10T17:10:02.114Z,80.71
2023-12-10T17:13:26.388Z,80.76
2023-12-10T17:16:50.740Z,81.28
2023-12-10T17:20:14.916Z,81.78
2023-12-10T17:23:38.130Z,82.48
2023-12-10T17:27:02.092Z,82.52
2023-12-10T17:30:26.257Z,83.77
2023-12-10T17:33:48.126Z,85.22
2023-12-10T17:37:09.939Z,90.73
2023-12-10T17:40:33.952Z,89.87
2023-12-10T17:43:55.615Z,89.12
2023-12-10T17:47:17.282Z,88.35
2023-12-10T17:50:39.044Z,80.65
2023-12-10T17:54:00.929Z,80.43
2023-12-10T17:57:22.627Z,81.10
2023-12-10T18:00:46.400Z,81.39
2023-12-10T18:04:12.893Z,82.52
2023-12-10T18:07:35.070Z,83.64
2023-12-10T18:11:02.104Z,84.05
2023-12-10T18:14:26.553Z,84.70
2023-12-10T18:17:48.271Z,85.66
2023-12-10T18:21:12.364Z,85.80
2023-12-10T18:24:36.649Z,84.76
2023-12-10T18:27:58.437Z,84.37
2023-12-10T18:31:23.108Z,84.04
2023-12-10T18:34:44.750Z,90.91
2023-12-10T18:38:06.439Z,91.15
2023-12-10T18:41:30.564Z,90.19
2023-12-10T18:44:57.266Z,89.60
2023-12-10T18:48:19.535Z,87.17
2023-12-10T18:51:41.266Z,86.74
2023-12-10T18:55:07.723Z,82.94
2023-12-10T18:58:31.633Z,80.04
2023-12-10T19:01:56.216Z,80.55
2023-12-10T19:05:18.382Z,81.61
2023-12-10T19:08:40.054Z,82.33
2023-12-10T19:12:01.659Z,86.02
2023-12-10T19:15:23.449Z,90.66
2023-12-10T19:18:45.670Z,90.05
2023-12-10T19:22:07.462Z,88.50
2023-12-10T19:25:31.583Z,87.60
2023-12-10T19:28:53.417Z,87.15
2023-12-10T19:32:17.392Z,85.70
2023-12-10T19:35:41.241Z,86.18
2023-12-10T19:39:02.864Z,79.56
2023-12-10T19:42:26.247Z,80.03
2023-12-10T19:45:48.045Z,80.59
2023-12-10T19:49:09.723Z,80.87
2023-12-10T19:52:31.423Z,81.53
2023-12-10T19:55:53.342Z,81.71
2023-12-10T19:59:16.091Z,82.07
2023-12-10T20:02:42.901Z,82.29
2023-12-10T20:06:07.969Z,83.27
2023-12-10T20:09:32.008Z,82.91
2023-12-10T20:12:53.771Z,89.96
2023-12-10T20:16:18.752Z,90.63
2023-12-10T20:19:40.407Z,88.51
2023-12-10T20:23:05.085Z,88.93
2023-12-10T20:26:36.592Z,87.09
2023-12-10T20:30:05.311Z,87.83
2023-12-10T20:33:31.867Z,85.45
2023-12-10T20:36:55.880Z,86.36
2023-12-10T20:40:17.685Z,85.39
2023-12-10T20:43:39.405Z,85.71
2023-12-10T20:47:01.302Z,79.15
2023-12-10T20:50:23.472Z,79.83
2023-12-10T20:53:47.828Z,83.66
2023-12-10T20:57:11.908Z,88.94
2023-12-10T21:00:35.099Z,88.03
2023-12-10T21:03:59.420Z,87.32
2023-12-10T21:07:21.168Z,86.07
2023-12-10T21:10:45.437Z,83.95
2023-12-10T21:14:09.299Z,87.16
2023-12-10T21:17:31.428Z,85.69
2023-12-10T21:20:55.423Z,87.79
2023-12-10T21:24:19.554Z,79.06
2023-12-10T21:27:41.663Z,79.92
2023-12-10T21:31:04.531Z,81.06
2023-12-10T21:34:27.032Z,81.87
2023-12-10T21:37:48.761Z,82.04
2023-12-10T21:41:10.461Z,82.36
2023-12-10T21:44:34.959Z,82.69
2023-12-10T21:47:59.066Z,82.89
2023-12-10T21:51:23.468Z,83.54
2023-12-10T21:54:46.448Z,84.13
2023-12-10T21:58:09.352Z,84.43
2023-12-10T22:01:35.873Z,91.30
2023-12-10T22:04:57.694Z,90.71
2023-12-10T22:08:19.390Z,85.89
2023-12-10T22:11:43.115Z,89.95
2023-12-10T22:15:05.175Z,82.65
2023-12-10T22:18:27.021Z,82.66
2023-12-10T22:21:48.792Z,83.63
2023-12-10T22:25:15.976Z,84.32
2023-12-10T22:28:38.154Z,84.93
2023-12-10T22:32:02.298Z,84.20
2023-12-10T22:35:27.005Z,84.70
2023-12-10T22:38:48.656Z,85.86
2023-12-10T22:42:12.596Z,86.03
2023-12-10T22:45:36.431Z,86.92
2023-12-10T22:49:00.667Z,86.76
2023-12-10T22:52:22.390Z,87.04
2023-12-10T22:55:46.502Z,87.31
2023-12-10T22:59:08.318Z,87.01
2023-12-10T23:02:29.921Z,86.70
2023-12-10T23:05:56.395Z,87.73
2023-12-10T23:09:18.046Z,87.56
2023-12-10T23:12:39.863Z,87.55
2023-12-10T23:16:09.935Z,87.78
2023-12-10T23:19:34.571Z,87.42
2023-12-10T23:22:58.935Z,87.33
2023-12-10T23:26:20.591Z,87.09
2023-12-10T23:29:46.881Z,87.48
2023-12-10T23:33:08.667Z,87.89
2023-12-10T23:36:32.891Z,87.30
2023-12-10T23:39:59.918Z,87.89
2023-12-10T23:43:23.808Z,87.93
2023-12-10T23:46:48.028Z,88.24
2023-12-10T23:50:12.353Z,87.88
2023-12-10T23:53:36.298Z,88.35
2023-12-10T23:57:00.233Z,88.16
